^^

Live Weather Display



Station Historical Data
Daily Summary for June 18, 2017 Units:  English    Metric   Both
« Previous Day
Next Day »
Daily Weekly Monthly Yearly Custom
  High: Low: Average:
Temperature: 88.5 °F 73.0 °F 79.9 °F
Dew Point: 75.5 °F 70.6 °F 72.7 °F
Humidity: 94 % 62 % 80 %
Wind Speed: 10.5 mph 0.0 mph 1.1 mph
Wind Gust: 18.1 mph - -
Wind:- - ESE
Pressure: 29.87 in 29.75 in -
Precipitation: 0.00 in    
Historical Graphs
 
 
Tabular Data for June 18, 2017
Time Temperature Dew Point Pressure Wind Wind Speed Wind Gust Humidity Rainfall Rate (Hourly)
00:03 73.0 °F 70.6 °F 29.86 in Calm   1.8 mph 92 % 0.00 in
00:08 73.0 °F 70.6 °F 29.86 in SE 5.4 mph 5.4 mph 92 % 0.00 in
00:13 73.0 °F 70.6 °F 29.86 in Calm   5.4 mph 92 % 0.00 in
00:18 73.0 °F 70.9 °F 29.86 in Calm   4.9 mph 93 % 0.00 in
00:23 73.2 °F 71.1 °F 29.86 in Calm   4.3 mph 93 % 0.00 in
00:28 73.2 °F 71.1 °F 29.86 in Calm   6.0 mph 93 % 0.00 in
00:33 73.2 °F 71.1 °F 29.85 in Calm   6.0 mph 93 % 0.00 in
00:38 73.4 °F 71.3 °F 29.85 in Calm   3.8 mph 93 % 0.00 in
00:43 73.6 °F 71.4 °F 29.85 in Calm   2.5 mph 93 % 0.00 in
00:48 73.6 °F 71.4 °F 29.85 in Calm   2.5 mph 93 % 0.00 in
00:53 73.6 °F 71.4 °F 29.86 in Calm   2.2 mph 93 % 0.00 in
00:54 73.6 °F 71.4 °F 29.86 in Calm   2.2 mph 93 % 0.00 in
00:58 73.8 °F 71.6 °F 29.86 in Calm   5.1 mph 93 % 0.00 in
01:03 73.8 °F 71.6 °F 29.85 in Calm   5.1 mph 93 % 0.00 in
01:08 73.8 °F 71.6 °F 29.85 in ESE 1.8 mph 2.7 mph 93 % 0.00 in
01:13 73.8 °F 71.6 °F 29.85 in SE 0.9 mph 2.7 mph 93 % 0.00 in
01:18 73.8 °F 71.6 °F 29.85 in Calm   2.9 mph 93 % 0.00 in
01:23 73.8 °F 71.6 °F 29.85 in Calm   4.5 mph 93 % 0.00 in
01:28 73.6 °F 71.4 °F 29.85 in ESE 1.3 mph 4.5 mph 93 % 0.00 in
01:33 73.6 °F 71.4 °F 29.85 in Calm   4.9 mph 93 % 0.00 in
01:38 73.6 °F 71.7 °F 29.85 in Calm   4.9 mph 94 % 0.00 in
01:43 73.6 °F 71.7 °F 29.85 in SE 2.7 mph 4.3 mph 94 % 0.00 in
01:48 73.4 °F 71.6 °F 29.85 in Calm   3.4 mph 94 % 0.00 in
01:53 73.4 °F 71.6 °F 29.85 in Calm   2.9 mph 94 % 0.00 in
01:58 73.4 °F 71.6 °F 29.85 in Calm   3.4 mph 94 % 0.00 in
02:03 73.4 °F 71.6 °F 29.85 in Calm   3.4 mph 94 % 0.00 in
02:08 73.4 °F 71.6 °F 29.84 in Calm   2.2 mph 94 % 0.00 in
02:13 73.4 °F 71.6 °F 29.84 in Calm   6.3 mph 94 % 0.00 in
02:18 73.2 °F 71.4 °F 29.84 in Calm   6.3 mph 94 % 0.00 in
02:23 73.2 °F 71.4 °F 29.84 in Calm   3.1 mph 94 % 0.00 in
02:28 73.2 °F 71.4 °F 29.84 in Calm   2.5 mph 94 % 0.00 in
02:33 73.2 °F 71.4 °F 29.84 in Calm     94 % 0.00 in
02:38 73.2 °F 71.4 °F 29.84 in Calm   4.7 mph 94 % 0.00 in
02:43 73.2 °F 71.4 °F 29.84 in Calm   4.7 mph 94 % 0.00 in
02:48 73.6 °F 71.4 °F 29.83 in Calm   4.0 mph 93 % 0.00 in
02:53 73.6 °F 71.4 °F 29.83 in Calm   6.0 mph 93 % 0.00 in
02:58 73.8 °F 71.6 °F 29.83 in Calm   6.5 mph 93 % 0.00 in
03:03 73.8 °F 71.6 °F 29.83 in ESE 3.8 mph 6.5 mph 93 % 0.00 in
03:08 73.8 °F 71.6 °F 29.83 in Calm   4.3 mph 93 % 0.00 in
03:13 73.8 °F 71.6 °F 29.83 in Calm   4.3 mph 93 % 0.00 in
03:18 73.9 °F 71.8 °F 29.83 in Calm   4.3 mph 93 % 0.00 in
03:23 73.9 °F 71.5 °F 29.83 in Calm   5.6 mph 92 % 0.00 in
03:28 73.9 °F 71.5 °F 29.83 in Calm   5.6 mph 92 % 0.00 in
03:33 73.9 °F 71.5 °F 29.83 in Calm   6.0 mph 92 % 0.00 in
03:38 73.9 °F 71.5 °F 29.83 in ESE 3.1 mph 6.0 mph 92 % 0.00 in
03:43 73.9 °F 71.5 °F 29.82 in Calm   5.4 mph 92 % 0.00 in
03:48 74.1 °F 71.7 °F 29.82 in SE 2.2 mph 6.7 mph 92 % 0.00 in
03:49 73.9 °F 71.5 °F 29.82 in Calm   6.7 mph 92 % 0.00 in
03:54 74.1 °F 71.7 °F 29.83 in Calm   6.7 mph 92 % 0.00 in
03:59 73.9 °F 71.5 °F 29.83 in Calm   3.4 mph 92 % 0.00 in
04:04 73.9 °F 71.5 °F 29.83 in SE 1.8 mph 3.4 mph 92 % 0.00 in
04:09 73.9 °F 71.5 °F 29.83 in Calm   3.1 mph 92 % 0.00 in
04:14 73.9 °F 71.5 °F 29.82 in Calm   4.5 mph 92 % 0.00 in
04:19 73.9 °F 71.5 °F 29.82 in Calm   4.5 mph 92 % 0.00 in
04:24 73.9 °F 71.5 °F 29.83 in Calm   7.2 mph 92 % 0.00 in
04:26 73.9 °F 71.5 °F 29.83 in ESE 3.4 mph 7.2 mph 92 % 0.00 in
04:31 73.9 °F 71.5 °F 29.83 in ESE 3.6 mph 7.8 mph 92 % 0.00 in
04:36 73.9 °F 71.5 °F 29.83 in Calm   7.8 mph 92 % 0.00 in
04:41 73.9 °F 71.5 °F 29.83 in ESE 3.1 mph 4.7 mph 92 % 0.00 in
04:46 73.9 °F 71.5 °F 29.83 in Calm   4.0 mph 92 % 0.00 in
04:51 73.9 °F 71.5 °F 29.84 in Calm   5.4 mph 92 % 0.00 in
04:56 73.9 °F 71.5 °F 29.83 in Calm   5.4 mph 92 % 0.00 in
05:01 73.9 °F 71.5 °F 29.83 in Calm   3.8 mph 92 % 0.00 in
05:06 73.9 °F 71.5 °F 29.84 in Calm   3.8 mph 92 % 0.00 in
05:11 73.9 °F 71.5 °F 29.84 in Calm   2.5 mph 92 % 0.00 in
05:16 73.9 °F 71.5 °F 29.84 in Calm   4.0 mph 92 % 0.00 in
05:21 73.9 °F 71.5 °F 29.85 in Calm   4.0 mph 92 % 0.00 in
05:26 73.9 °F 71.5 °F 29.85 in ESE 2.2 mph 3.6 mph 92 % 0.00 in
05:31 73.9 °F 71.5 °F 29.85 in SE 3.1 mph 5.1 mph 92 % 0.00 in
05:36 73.9 °F 71.5 °F 29.85 in Calm   5.1 mph 92 % 0.00 in
05:41 73.9 °F 71.5 °F 29.85 in ESE 2.9 mph 2.9 mph 92 % 0.00 in
05:46 73.9 °F 71.5 °F 29.86 in Calm   2.9 mph 92 % 0.00 in
05:51 73.9 °F 71.5 °F 29.85 in Calm   4.3 mph 92 % 0.00 in
05:56 73.9 °F 71.5 °F 29.85 in Calm   4.3 mph 92 % 0.00 in
05:57 73.9 °F 71.5 °F 29.85 in Calm   4.3 mph 92 % 0.00 in
06:02 73.9 °F 71.5 °F 29.86 in Calm     92 % 0.00 in
06:07 73.8 °F 71.3 °F 29.86 in Calm   3.1 mph 92 % 0.00 in
06:12 73.9 °F 71.5 °F 29.86 in Calm   3.1 mph 92 % 0.00 in
06:17 73.9 °F 71.5 °F 29.86 in Calm     92 % 0.00 in
06:22 73.9 °F 71.5 °F 29.86 in Calm     92 % 0.00 in
06:27 73.9 °F 71.5 °F 29.86 in Calm     92 % 0.00 in
06:32 73.9 °F 71.5 °F 29.86 in Calm     92 % 0.00 in
06:37 73.8 °F 71.3 °F 29.86 in Calm     92 % 0.00 in
06:42 73.8 °F 71.3 °F 29.86 in Calm     92 % 0.00 in
06:47 73.8 °F 71.3 °F 29.86 in Calm     92 % 0.00 in
06:52 73.9 °F 71.5 °F 29.87 in Calm   3.4 mph 92 % 0.00 in
06:57 73.9 °F 71.5 °F 29.86 in Calm   3.4 mph 92 % 0.00 in
07:02 73.9 °F 71.5 °F 29.86 in Calm   2.9 mph 92 % 0.00 in
07:07 73.9 °F 71.5 °F 29.86 in Calm   3.1 mph 92 % 0.00 in
07:12 73.9 °F 71.4 °F 29.85 in Calm   3.1 mph 91 % 0.00 in
07:17 74.1 °F 71.4 °F 29.85 in Calm   3.1 mph 91 % 0.00 in
07:22 74.1 °F 71.4 °F 29.85 in SE 2.7 mph 3.4 mph 91 % 0.00 in
07:27 74.3 °F 71.2 °F 29.85 in SE 2.7 mph 3.4 mph 90 % 0.00 in
07:32 74.3 °F 71.2 °F 29.86 in Calm   4.9 mph 90 % 0.00 in
07:37 74.5 °F 71.4 °F 29.85 in Calm   5.1 mph 90 % 0.00 in
07:42 74.5 °F 71.4 °F 29.86 in Calm   5.1 mph 90 % 0.00 in
07:47 74.5 °F 71.4 °F 29.86 in Calm   8.3 mph 90 % 0.00 in
07:52 74.7 °F 71.6 °F 29.86 in East 1.8 mph 8.3 mph 90 % 0.00 in
07:57 74.8 °F 71.8 °F 29.86 in Calm   2.5 mph 90 % 0.00 in
08:02 74.8 °F 71.8 °F 29.86 in Calm   5.4 mph 90 % 0.00 in
08:07 74.8 °F 71.8 °F 29.86 in ESE 0.7 mph 5.4 mph 90 % 0.00 in
08:12 74.8 °F 71.8 °F 29.86 in Calm   4.3 mph 90 % 0.00 in
08:17 74.8 °F 71.8 °F 29.87 in Calm   2.5 mph 90 % 0.00 in
08:22 74.8 °F 71.8 °F 29.87 in Calm   2.5 mph 90 % 0.00 in
08:27 75.0 °F 72.0 °F 29.87 in Calm   2.5 mph 90 % 0.00 in
08:32 75.0 °F 72.0 °F 29.87 in Calm   4.5 mph 90 % 0.00 in
08:37 75.4 °F 72.3 °F 29.87 in Calm   4.7 mph 90 % 0.00 in
08:42 75.4 °F 72.0 °F 29.87 in Calm   4.7 mph 89 % 0.00 in
08:47 75.6 °F 72.5 °F 29.86 in Calm   3.6 mph 90 % 0.00 in
08:52 75.6 °F 72.5 °F 29.86 in Calm   2.0 mph 90 % 0.00 in
08:57 75.7 °F 72.7 °F 29.86 in NE 2.0 mph 5.1 mph 90 % 0.00 in
08:58 75.7 °F 72.7 °F 29.86 in East 1.6 mph 5.1 mph 90 % 0.00 in
09:03 76.1 °F 72.7 °F 29.86 in Calm   5.1 mph 89 % 0.00 in
09:08 76.1 °F 72.3 °F 29.86 in Calm   5.8 mph 88 % 0.00 in
09:13 76.6 °F 72.9 °F 29.86 in Calm   6.9 mph 88 % 0.00 in
09:18 76.8 °F 72.7 °F 29.85 in Calm   10.5 mph 87 % 0.00 in
09:23 76.8 °F 72.7 °F 29.85 in ESE 5.4 mph 10.5 mph 87 % 0.00 in
09:24 76.8 °F 72.7 °F 29.86 in Calm   10.5 mph 87 % 0.00 in
09:29 76.8 °F 72.7 °F 29.86 in Calm   7.2 mph 87 % 0.00 in
09:34 76.8 °F 72.7 °F 29.85 in ESE 5.6 mph 7.2 mph 87 % 0.00 in
09:39 77.2 °F 72.7 °F 29.85 in Calm   5.8 mph 86 % 0.00 in
09:44 77.5 °F 73.0 °F 29.85 in SE 3.4 mph 9.6 mph 86 % 0.00 in
09:49 77.9 °F 73.0 °F 29.85 in SE 4.5 mph 9.6 mph 85 % 0.00 in
09:54 78.1 °F 72.9 °F 29.84 in Calm   8.7 mph 84 % 0.00 in
09:59 78.4 °F 73.6 °F 29.85 in Calm   8.7 mph 85 % 0.00 in
10:04 78.6 °F 73.4 °F 29.84 in Calm   8.5 mph 84 % 0.00 in
10:09 78.6 °F 73.4 °F 29.84 in Calm   8.5 mph 84 % 0.00 in
10:14 78.6 °F 73.4 °F 29.84 in Calm   6.5 mph 84 % 0.00 in
10:19 78.6 °F 73.4 °F 29.84 in Calm   6.5 mph 84 % 0.00 in
10:24 78.6 °F 73.8 °F 29.84 in Calm   5.6 mph 85 % 0.00 in
10:29 78.6 °F 73.8 °F 29.84 in Calm   4.3 mph 85 % 0.00 in
10:34 79.0 °F 74.1 °F 29.85 in Calm   4.9 mph 85 % 0.00 in
10:39 79.3 °F 74.1 °F 29.85 in Calm   6.0 mph 84 % 0.00 in
10:44 79.7 °F 74.1 °F 29.84 in ESE 3.6 mph 7.6 mph 82 % 0.00 in
10:49 79.9 °F 73.9 °F 29.85 in Calm   7.6 mph 82 % 0.00 in
10:54 79.9 °F 73.6 °F 29.84 in SE 2.5 mph 6.7 mph 81 % 0.00 in
10:59 80.1 °F 73.4 °F 29.84 in Calm   8.3 mph 80 % 0.00 in
11:04 80.2 °F 73.6 °F 29.84 in WSW 0.9 mph 8.3 mph 80 % 0.00 in
11:09 80.8 °F 74.5 °F 29.83 in Calm   6.0 mph 81 % 0.00 in
11:14 81.1 °F 74.1 °F 29.84 in East 3.6 mph 6.5 mph 79 % 0.00 in
11:19 81.1 °F 73.7 °F 29.83 in SSE 2.2 mph 6.5 mph 78 % 0.00 in
11:24 81.3 °F 74.2 °F 29.83 in Calm   5.6 mph 79 % 0.00 in
11:29 81.7 °F 74.2 °F 29.83 in Calm   6.5 mph 78 % 0.00 in
11:34 81.7 °F 74.2 °F 29.83 in ESE 4.7 mph 7.2 mph 78 % 0.00 in
11:39 82.0 °F 74.1 °F 29.83 in East 3.8 mph 18.1 mph 77 % 0.00 in
11:44 82.0 °F 74.6 °F 29.83 in Calm   18.1 mph 78 % 0.00 in
11:49 82.0 °F 75.0 °F 29.83 in Calm   8.9 mph 79 % 0.00 in
11:54 82.0 °F 74.1 °F 29.83 in SE 1.1 mph 4.5 mph 77 % 0.00 in
11:59 82.0 °F 74.1 °F 29.83 in ESE 2.5 mph 5.1 mph 77 % 0.00 in
12:04 82.0 °F 73.7 °F 29.83 in Calm   5.1 mph 76 % 0.00 in
12:05 82.0 °F 74.1 °F 29.83 in Calm   5.1 mph 77 % 0.00 in
12:10 82.0 °F 73.7 °F 29.83 in Calm   6.5 mph 76 % 0.00 in
12:15 82.4 °F 73.7 °F 29.83 in Calm   6.5 mph 75 % 0.00 in
12:20 82.6 °F 73.4 °F 29.83 in ESE 7.6 mph 11.0 mph 74 % 0.00 in
12:25 82.2 °F 73.1 °F 29.83 in ESE 4.7 mph 11.0 mph 74 % 0.00 in
12:30 82.6 °F 73.4 °F 29.82 in Calm   8.3 mph 74 % 0.00 in
12:35 83.1 °F 73.5 °F 29.82 in SE 3.1 mph 8.5 mph 73 % 0.00 in
12:40 83.5 °F 73.9 °F 29.83 in SE 6.9 mph 8.5 mph 73 % 0.00 in
12:45 83.5 °F 73.9 °F 29.82 in Calm   8.5 mph 73 % 0.00 in
12:50 83.8 °F 74.2 °F 29.82 in Calm   8.5 mph 73 % 0.00 in
12:55 84.0 °F 74.0 °F 29.82 in Calm   5.1 mph 72 % 0.00 in
13:00 83.8 °F 74.2 °F 29.82 in Calm   5.1 mph 73 % 0.00 in
13:05 84.4 °F 74.4 °F 29.82 in Calm   5.6 mph 72 % 0.00 in
13:10 84.0 °F 74.0 °F 29.82 in ESE 1.8 mph 5.6 mph 72 % 0.00 in
13:15 83.7 °F 73.7 °F 29.81 in SE 4.0 mph 6.7 mph 72 % 0.00 in
13:20 84.4 °F 74.8 °F 29.81 in ESE 2.2 mph 6.7 mph 73 % 0.00 in
13:25 84.7 °F 74.7 °F 29.81 in SE 1.8 mph 11.6 mph 72 % 0.00 in
13:30 85.3 °F 74.9 °F 29.81 in ESE 3.1 mph 11.6 mph 71 % 0.00 in
13:35 85.6 °F 74.4 °F 29.81 in Calm   7.8 mph 69 % 0.00 in
13:40 85.8 °F 74.6 °F 29.80 in Calm   7.8 mph 69 % 0.00 in
13:45 85.8 °F 74.1 °F 29.80 in Calm   7.8 mph 68 % 0.00 in
13:50 85.6 °F 74.4 °F 29.80 in Calm   6.5 mph 69 % 0.00 in
13:55 85.6 °F 75.2 °F 29.80 in Calm   6.5 mph 71 % 0.00 in
14:00 85.8 °F 75.0 °F 29.80 in East 10.5 mph 10.5 mph 70 % 0.00 in
14:05 86.5 °F 75.5 °F 29.79 in SW 2.0 mph 10.5 mph 70 % 0.00 in
14:10 86.9 °F 75.1 °F 29.79 in NE 5.1 mph 7.6 mph 68 % 0.00 in
14:15 86.9 °F 74.2 °F 29.79 in Calm   7.6 mph 66 % 0.00 in
14:20 86.7 °F 75.4 °F 29.79 in Calm   6.9 mph 69 % 0.00 in
14:25 87.1 °F 74.3 °F 29.79 in NW 2.5 mph 8.1 mph 66 % 0.00 in
14:30 87.4 °F 74.2 °F 29.79 in Calm   8.1 mph 65 % 0.00 in
14:31 87.6 °F 74.8 °F 29.79 in SW 1.6 mph 8.1 mph 66 % 0.00 in
14:36 87.6 °F 74.4 °F 29.78 in SSE 0.7 mph 3.4 mph 65 % 0.00 in
14:41 88.0 °F 74.3 °F 29.78 in ENE 2.5 mph 3.6 mph 64 % 0.00 in
14:46 87.4 °F 74.2 °F 29.78 in Calm   10.1 mph 65 % 0.00 in
14:51 87.1 °F 73.9 °F 29.78 in Calm   10.1 mph 65 % 0.00 in
14:56 86.7 °F 74.5 °F 29.78 in Calm   8.1 mph 67 % 0.00 in
15:01 87.4 °F 74.7 °F 29.77 in Calm   8.1 mph 66 % 0.00 in
15:06 87.6 °F 74.4 °F 29.77 in Calm   9.2 mph 66 % 0.00 in
15:11 87.4 °F 73.8 °F 29.77 in Calm   9.2 mph 64 % 0.00 in
15:16 87.4 °F 74.2 °F 29.77 in Calm   4.7 mph 65 % 0.00 in
15:21 87.8 °F 73.7 °F 29.78 in Calm   8.5 mph 63 % 0.00 in
15:26 88.0 °F 73.4 °F 29.78 in East 4.3 mph 8.5 mph 62 % 0.00 in
15:31 88.0 °F 73.8 °F 29.77 in Calm   4.9 mph 63 % 0.00 in
15:36 88.2 °F 74.0 °F 29.77 in Calm   4.9 mph 63 % 0.00 in
15:41 88.3 °F 73.7 °F 29.77 in Calm   4.7 mph 62 % 0.00 in
15:46 88.5 °F 74.3 °F 29.77 in SSE 5.1 mph 7.4 mph 63 % 0.00 in
15:50 88.5 °F 73.9 °F 29.77 in East 1.8 mph 7.4 mph 62 % 0.00 in
15:55 88.3 °F 73.7 °F 29.77 in SE 2.0 mph 8.3 mph 62 % 0.00 in
16:00 87.6 °F 73.0 °F 29.77 in Calm   8.3 mph 62 % 0.00 in
16:05 86.9 °F 73.3 °F 29.77 in Calm   7.6 mph 64 % 0.00 in
16:10 86.5 °F 73.8 °F 29.77 in SE 3.1 mph 7.6 mph 66 % 0.00 in
16:15 86.4 °F 74.1 °F 29.76 in Calm   5.8 mph 67 % 0.00 in
16:20 86.5 °F 74.3 °F 29.77 in Calm   10.7 mph 67 % 0.00 in
16:25 85.8 °F 74.1 °F 29.77 in Calm   10.7 mph 68 % 0.00 in
16:30 85.6 °F 74.4 °F 29.77 in SSE 1.6 mph 8.5 mph 69 % 0.00 in
16:35 85.3 °F 74.5 °F 29.77 in ESE 7.4 mph 8.5 mph 70 % 0.00 in
16:40 85.6 °F 74.8 °F 29.76 in SE 8.1 mph 8.1 mph 70 % 0.00 in
16:45 85.8 °F 74.1 °F 29.77 in Calm   8.1 mph 68 % 0.00 in
16:50 85.8 °F 74.6 °F 29.76 in ESE 2.5 mph 7.4 mph 69 % 0.00 in
16:55 85.6 °F 74.4 °F 29.76 in ESE 3.6 mph 11.2 mph 69 % 0.00 in
17:00 85.6 °F 74.4 °F 29.76 in South 0.9 mph 11.2 mph 69 % 0.00 in
17:05 86.2 °F 74.4 °F 29.76 in Calm   6.5 mph 68 % 0.00 in
17:10 86.5 °F 73.4 °F 29.76 in ESE 2.7 mph 11.0 mph 65 % 0.00 in
17:15 86.2 °F 74.0 °F 29.75 in Calm   11.0 mph 67 % 0.00 in
17:20 86.4 °F 73.2 °F 29.75 in Calm   8.1 mph 65 % 0.00 in
17:25 86.4 °F 73.7 °F 29.75 in Calm   11.2 mph 66 % 0.00 in
17:30 86.4 °F 74.1 °F 29.75 in SE 6.5 mph 16.6 mph 67 % 0.00 in
17:35 86.4 °F 73.2 °F 29.75 in SE 4.7 mph 16.6 mph 65 % 0.00 in
17:40 86.4 °F 72.7 °F 29.75 in SE 3.8 mph 9.8 mph 65 % 0.00 in
17:45 86.5 °F 73.4 °F 29.75 in Calm   9.8 mph 65 % 0.00 in
17:50 86.7 °F 73.5 °F 29.75 in Calm   8.5 mph 65 % 0.00 in
17:55 86.7 °F 73.5 °F 29.75 in Calm   8.9 mph 65 % 0.00 in
18:00 86.7 °F 73.1 °F 29.75 in Calm   11.0 mph 64 % 0.00 in
18:05 86.7 °F 73.5 °F 29.75 in SW 4.5 mph 11.0 mph 65 % 0.00 in
18:10 86.7 °F 73.5 °F 29.76 in Calm   10.5 mph 65 % 0.00 in
18:15 86.7 °F 73.1 °F 29.76 in Calm   10.5 mph 64 % 0.00 in
18:20 86.5 °F 72.9 °F 29.76 in Calm   8.9 mph 64 % 0.00 in
18:25 86.2 °F 73.2 °F 29.76 in Calm   8.3 mph 65 % 0.00 in
18:30 86.2 °F 73.0 °F 29.76 in East 2.7 mph 8.3 mph 65 % 0.00 in
18:35 86.2 °F 73.0 °F 29.77 in Calm   3.6 mph 65 % 0.00 in
18:40 86.0 °F 72.9 °F 29.77 in Calm   8.7 mph 65 % 0.00 in
18:45 86.0 °F 72.9 °F 29.77 in Calm   8.7 mph 65 % 0.00 in
18:50 85.8 °F 72.7 °F 29.77 in Calm   4.7 mph 65 % 0.00 in
18:55 86.0 °F 72.9 °F 29.77 in Calm   6.5 mph 65 % 0.00 in
19:00 85.8 °F 73.1 °F 29.77 in SE 4.0 mph 6.5 mph 66 % 0.00 in
19:05 85.8 °F 73.1 °F 29.77 in Calm   4.0 mph 66 % 0.00 in
19:10 85.8 °F 73.1 °F 29.77 in Calm   10.1 mph 66 % 0.00 in
19:15 85.6 °F 73.4 °F 29.77 in ENE 5.8 mph 10.1 mph 67 % 0.00 in
19:20 85.3 °F 73.1 °F 29.77 in Calm   9.4 mph 67 % 0.00 in
19:25 85.1 °F 72.9 °F 29.77 in Calm   7.2 mph 67 % 0.00 in
19:30 84.9 °F 72.7 °F 29.77 in East 4.7 mph 4.7 mph 67 % 0.00 in
19:35 84.7 °F 73.0 °F 29.77 in Calm   6.7 mph 68 % 0.00 in
19:40 84.6 °F 72.8 °F 29.77 in SE 2.2 mph 6.7 mph 68 % 0.00 in
19:45 84.4 °F 72.7 °F 29.77 in Calm   8.1 mph 68 % 0.00 in
19:50 84.2 °F 72.5 °F 29.77 in Calm   8.1 mph 68 % 0.00 in
19:55 84.0 °F 72.3 °F 29.77 in Calm   6.9 mph 68 % 0.00 in
20:00 84.0 °F 72.8 °F 29.78 in Calm   6.9 mph 69 % 0.00 in
20:05 83.8 °F 72.6 °F 29.78 in Calm   5.4 mph 69 % 0.00 in
20:10 83.8 °F 72.6 °F 29.78 in Calm   7.8 mph 69 % 0.00 in
20:15 83.7 °F 72.4 °F 29.78 in East 3.8 mph 7.8 mph 69 % 0.00 in
20:20 83.5 °F 72.2 °F 29.78 in Calm   8.5 mph 69 % 0.00 in
20:25 83.5 °F 72.2 °F 29.78 in SE 3.6 mph 8.5 mph 69 % 0.00 in
20:30 83.5 °F 72.7 °F 29.78 in Calm   4.7 mph 70 % 0.00 in
20:31 83.5 °F 72.7 °F 29.78 in ESE 5.4 mph 9.2 mph 70 % 0.00 in
20:36 83.5 °F 72.7 °F 29.79 in Calm   9.2 mph 70 % 0.00 in
20:41 83.3 °F 72.5 °F 29.79 in Calm   10.7 mph 70 % 0.00 in
20:46 83.1 °F 72.7 °F 29.79 in Calm   10.7 mph 71 % 0.00 in
20:52 83.1 °F 72.7 °F 29.79 in Calm   4.5 mph 71 % 0.00 in
20:56 82.9 °F 72.5 °F 29.80 in SE 2.0 mph 4.5 mph 71 % 0.00 in
21:01 82.9 °F 72.5 °F 29.80 in Calm   7.2 mph 71 % 0.00 in
21:07 82.9 °F 72.5 °F 29.80 in ESE 2.0 mph 7.2 mph 71 % 0.00 in
21:12 82.9 °F 72.5 °F 29.80 in Calm   6.0 mph 71 % 0.00 in
21:16 82.8 °F 72.4 °F 29.79 in Calm   6.0 mph 71 % 0.00 in
21:18 82.8 °F 72.4 °F 29.80 in Calm   6.0 mph 71 % 0.00 in
21:23 82.6 °F 72.6 °F 29.80 in Calm   2.7 mph 72 % 0.00 in
21:28 82.6 °F 72.6 °F 29.80 in East 6.9 mph 9.4 mph 72 % 0.00 in
21:33 82.6 °F 72.6 °F 29.80 in ESE 3.1 mph 9.4 mph 72 % 0.00 in
21:38 82.6 °F 72.6 °F 29.81 in East 4.0 mph 5.4 mph 72 % 0.00 in
21:43 82.6 °F 72.6 °F 29.81 in Calm   6.5 mph 72 % 0.00 in
21:48 82.2 °F 72.2 °F 29.81 in Calm   6.5 mph 72 % 0.00 in
21:53 82.2 °F 72.7 °F 29.82 in ESE 4.3 mph 4.3 mph 73 % 0.00 in
21:58 82.2 °F 72.7 °F 29.81 in SE 6.0 mph 6.0 mph 73 % 0.00 in
22:03 82.2 °F 72.7 °F 29.82 in Calm   9.2 mph 73 % 0.00 in
22:08 82.2 °F 72.2 °F 29.81 in ENE 3.6 mph 9.2 mph 72 % 0.00 in
22:13 82.2 °F 72.2 °F 29.82 in Calm   7.8 mph 72 % 0.00 in
22:18 82.0 °F 72.5 °F 29.82 in Calm     73 % 0.00 in
22:23 82.0 °F 72.5 °F 29.82 in ESE 3.1 mph 3.1 mph 73 % 0.00 in
22:28 82.0 °F 72.5 °F 29.82 in Calm   6.7 mph 73 % 0.00 in
22:33 81.9 °F 72.3 °F 29.82 in Calm   6.7 mph 73 % 0.00 in
22:38 81.7 °F 72.2 °F 29.82 in East 3.8 mph 6.0 mph 73 % 0.00 in
22:43 81.7 °F 72.6 °F 29.82 in Calm   5.4 mph 74 % 0.00 in
22:48 81.7 °F 72.6 °F 29.82 in SE 0.7 mph 5.4 mph 74 % 0.00 in
22:49 81.5 °F 72.6 °F 29.82 in Calm   4.0 mph 74 % 0.00 in
22:54 81.5 °F 72.4 °F 29.81 in ESE 3.4 mph 4.5 mph 74 % 0.00 in
22:59 81.3 °F 72.6 °F 29.82 in ENE 2.2 mph 4.5 mph 75 % 0.00 in
23:04 81.3 °F 72.6 °F 29.82 in ESE 2.0 mph 5.4 mph 75 % 0.00 in
23:09 81.1 °F 72.5 °F 29.82 in Calm   6.5 mph 75 % 0.00 in
23:14 81.1 °F 72.9 °F 29.81 in Calm   6.5 mph 76 % 0.00 in
23:19 81.1 °F 72.9 °F 29.81 in Calm   5.1 mph 76 % 0.00 in
23:24 81.1 °F 72.9 °F 29.81 in Calm   6.3 mph 76 % 0.00 in
23:29 81.0 °F 72.7 °F 29.82 in Calm   6.3 mph 76 % 0.00 in
23:34 81.0 °F 72.7 °F 29.82 in ESE 3.4 mph 3.8 mph 76 % 0.00 in
23:39 80.8 °F 72.1 °F 29.82 in ESE 9.4 mph 9.4 mph 75 % 0.00 in
23:44 80.8 °F 72.1 °F 29.82 in ESE 1.8 mph 9.4 mph 75 % 0.00 in
23:49 80.8 °F 72.1 °F 29.82 in Calm   3.8 mph 75 % 0.00 in
23:54 80.6 °F 72.0 °F 29.82 in Calm   5.6 mph 75 % 0.00 in
23:59 80.4 °F 71.8 °F 29.82 in Calm   5.6 mph 75 % 0.00 in
Burke, Virginia, USA
Compliments of Weather Underground - 3 mb